PRIVATE WETTERSTATION BILLIGHEIM-ALLFELD                       ZURCK
Wetterdaten: Montag, 20.11.2017
Datum Zeit Temp. A. Temp. A. min Temp. A. max Feuchte A. Luftdruck Regen Wind Richtung Richtung Sonnenschein ET Solar Taupunkt Windchill Windben Empfang
20.11.2017 00:00 3,3 C 3,3 C 3,4 C 86 % 1022,3 hPa 0,0 l/m 4,8 km/h (1 Bft) W 270 0 min 0,000 mm 0 W/m 1,2 C 3,3 C 16,1 km/h (3 Bft) 98 %
20.11.2017 00:10 3,3 C 3,3 C 3,3 C 86 % 1022,2 hPa 0,0 l/m 3,2 km/h (1 Bft) W 270 0 min 0,000 mm 0 W/m 1,2 C 3,3 C 9,7 km/h (2 Bft) 79 %
20.11.2017 00:20 3,2 C 3,2 C 3,3 C 86 % 1022,5 hPa 0,0 l/m 0,0 km/h (0 Bft) W 270 0 min 0,000 mm 0 W/m 1,1 C 3,2 C 6,4 km/h (2 Bft) 98 %
20.11.2017 00:30 3,2 C 3,1 C 3,2 C 87 % 1022,5 hPa 0,0 l/m 4,8 km/h (1 Bft) W-SW 247 0 min 0,000 mm 0 W/m 1,2 C 3,2 C 19,3 km/h (3 Bft) 98 %
20.11.2017 00:40 3,2 C 3,1 C 3,2 C 87 % 1022,6 hPa 0,0 l/m 6,4 km/h (2 Bft) W-SW 247 0 min 0,000 mm 0 W/m 1,2 C 3,2 C 17,7 km/h (3 Bft) 98 %
20.11.2017 00:50 3,2 C 3,2 C 3,2 C 88 % 1022,5 hPa 0,0 l/m 4,8 km/h (1 Bft) SW 225 0 min 0,000 mm 0 W/m 1,4 C 3,2 C 14,5 km/h (3 Bft) 89 %
20.11.2017 01:00 3,2 C 3,2 C 3,2 C 87 % 1022,5 hPa 0,0 l/m 6,4 km/h (2 Bft) W-SW 247 0 min 0,000 mm 0 W/m 1,2 C 3,2 C 16,1 km/h (3 Bft) 98 %
20.11.2017 01:10 3,2 C 3,2 C 3,2 C 87 % 1022,4 hPa 0,0 l/m 4,8 km/h (1 Bft) W 270 0 min 0,000 mm 0 W/m 1,2 C 3,2 C 14,5 km/h (3 Bft) 98 %
20.11.2017 01:20 3,1 C 3,1 C 3,2 C 87 % 1022,2 hPa 0,0 l/m 4,8 km/h (1 Bft) W 270 0 min 0,000 mm 0 W/m 1,2 C 3,1 C 11,3 km/h (2 Bft) 98 %
20.11.2017 01:30 2,9 C 2,9 C 3,1 C 87 % 1022,1 hPa 0,0 l/m 4,8 km/h (1 Bft) W-SW 247 0 min 0,000 mm 0 W/m 1,0 C 2,9 C 11,3 km/h (2 Bft) 98 %
20.11.2017 01:40 2,8 C 2,8 C 2,9 C 88 % 1022,2 hPa 0,0 l/m 4,8 km/h (1 Bft) W-SW 247 0 min 0,000 mm 0 W/m 1,0 C 2,8 C 11,3 km/h (2 Bft) 98 %
20.11.2017 01:50 2,6 C 2,6 C 2,8 C 88 % 1022,1 hPa 0,0 l/m 4,8 km/h (1 Bft) SW 225 0 min 0,000 mm 0 W/m 0,8 C 2,6 C 11,3 km/h (2 Bft) 97 %
20.11.2017 02:00 2,4 C 2,4 C 2,6 C 88 % 1022,0 hPa 0,0 l/m 1,6 km/h (1 Bft) SW 225 0 min 0,000 mm 0 W/m 0,6 C 2,4 C 8,0 km/h (2 Bft) 97 %
20.11.2017 02:10 2,4 C 2,4 C 2,4 C 89 % 1022,1 hPa 0,0 l/m 3,2 km/h (1 Bft) SW 225 0 min 0,000 mm 0 W/m 0,8 C 2,4 C 9,7 km/h (2 Bft) 98 %
20.11.2017 02:20 2,4 C 2,4 C 2,4 C 89 % 1022,1 hPa 0,0 l/m 6,4 km/h (2 Bft) W-SW 247 0 min 0,000 mm 0 W/m 0,8 C 2,4 C 17,7 km/h (3 Bft) 97 %
20.11.2017 02:30 2,4 C 2,4 C 2,4 C 89 % 1021,9 hPa 0,0 l/m 8,0 km/h (2 Bft) W-SW 247 0 min 0,000 mm 0 W/m 0,8 C 0,9 C 20,9 km/h (4 Bft) 89 %
20.11.2017 02:40 2,5 C 2,4 C 2,5 C 89 % 1022,0 hPa 0,0 l/m 11,3 km/h (2 Bft) W-SW 247 0 min 0,000 mm 0 W/m 0,9 C -1,6 C 25,7 km/h (4 Bft) 97 %
20.11.2017 02:50 2,5 C 2,5 C 2,5 C 89 % 1022,1 hPa 0,0 l/m 8,0 km/h (2 Bft) W-SW 247 0 min 0,000 mm 0 W/m 0,9 C 1,0 C 20,9 km/h (4 Bft) 98 %
20.11.2017 03:00 2,5 C 2,5 C 2,5 C 89 % 1022,3 hPa 0,0 l/m 6,4 km/h (2 Bft) W-SW 247 0 min 0,000 mm 0 W/m 0,9 C 2,5 C 19,3 km/h (3 Bft) 98 %
20.11.2017 03:10 2,5 C 2,5 C 2,5 C 89 % 1022,2 hPa 0,0 l/m 6,4 km/h (2 Bft) W 270 0 min 0,000 mm 0 W/m 0,9 C 2,5 C 17,7 km/h (3 Bft) 98 %
20.11.2017 03:20 2,4 C 2,4 C 2,5 C 89 % 1022,2 hPa 0,0 l/m 6,4 km/h (2 Bft) W-SW 247 0 min 0,000 mm 0 W/m 0,8 C 2,4 C 19,3 km/h (3 Bft) 98 %
20.11.2017 03:30 2,4 C 2,4 C 2,5 C 89 % 1022,3 hPa 0,0 l/m 6,4 km/h (2 Bft) W 270 0 min 0,000 mm 0 W/m 0,8 C 2,4 C 17,7 km/h (3 Bft) 97 %
20.11.2017 03:40 2,4 C 2,4 C 2,5 C 89 % 1022,2 hPa 0,0 l/m 3,2 km/h (1 Bft) W 270 0 min 0,000 mm 0 W/m 0,8 C 2,4 C 16,1 km/h (3 Bft) 97 %
20.11.2017 03:50 2,4 C 2,4 C 2,5 C 89 % 1022,2 hPa 0,0 l/m 3,2 km/h (1 Bft) W-SW 247 0 min 0,000 mm 0 W/m 0,8 C 2,4 C 14,5 km/h (3 Bft) 98 %
20.11.2017 04:00 2,4 C 2,4 C 2,4 C 89 % 1022,1 hPa 0,0 l/m 4,8 km/h (1 Bft) W-SW 247 0 min 0,000 mm 0 W/m 0,8 C 2,4 C 17,7 km/h (3 Bft) 98 %
20.11.2017 04:10 2,2 C 2,2 C 2,4 C 88 % 1022,1 hPa 0,0 l/m 6,4 km/h (2 Bft) W 270 0 min 0,000 mm 0 W/m 0,4 C 2,2 C 20,9 km/h (4 Bft) 88 %
20.11.2017 04:20 2,1 C 2,1 C 2,2 C 89 % 1022,1 hPa 0,0 l/m 11,3 km/h (2 Bft) W-SW 247 0 min 0,000 mm 0 W/m 0,5 C -2,1 C 24,1 km/h (4 Bft) 98 %
20.11.2017 04:30 1,9 C 1,9 C 2,1 C 89 % 1022,1 hPa 0,0 l/m 9,7 km/h (2 Bft) W-SW 247 0 min 0,000 mm 0 W/m 0,3 C -1,1 C 22,5 km/h (4 Bft) 98 %
20.11.2017 04:40 1,9 C 1,9 C 1,9 C 89 % 1022,0 hPa 0,0 l/m 11,3 km/h (2 Bft) W-SW 247 0 min 0,000 mm 0 W/m 0,3 C -2,3 C 29,0 km/h (5 Bft) 98 %
20.11.2017 04:50 1,8 C 1,8 C 1,9 C 89 % 1022,1 hPa 0,0 l/m 9,7 km/h (2 Bft) W 270 0 min 0,000 mm 0 W/m 0,2 C -1,2 C 29,0 km/h (5 Bft) 98 %
20.11.2017 05:00 1,8 C 1,8 C 1,8 C 90 % 1022,1 hPa 0,0 l/m 8,0 km/h (2 Bft) W-SW 247 0 min 0,000 mm 0 W/m 0,3 C 0,2 C 25,7 km/h (4 Bft) 97 %
20.11.2017 05:10 1,8 C 1,8 C 1,8 C 90 % 1022,1 hPa 0,0 l/m 9,7 km/h (2 Bft) W 270 0 min 0,000 mm 0 W/m 0,3 C -1,2 C 20,9 km/h (4 Bft) 98 %
20.11.2017 05:20 1,8 C 1,8 C 1,8 C 90 % 1022,1 hPa 0,0 l/m 8,0 km/h (2 Bft) W 270 0 min 0,000 mm 0 W/m 0,3 C 0,2 C 20,9 km/h (4 Bft) 97 %
20.11.2017 05:30 1,8 C 1,8 C 1,8 C 90 % 1022,1 hPa 0,0 l/m 4,8 km/h (1 Bft) W 270 0 min 0,000 mm 0 W/m 0,3 C 1,8 C 11,3 km/h (2 Bft) 98 %
20.11.2017 05:40 1,8 C 1,8 C 1,8 C 90 % 1022,1 hPa 0,0 l/m 4,8 km/h (1 Bft) W 270 0 min 0,000 mm 0 W/m 0,3 C 1,8 C 20,9 km/h (4 Bft) 98 %
20.11.2017 05:50 1,9 C 1,8 C 1,9 C 90 % 1022,0 hPa 0,0 l/m 8,0 km/h (2 Bft) W 270 0 min 0,000 mm 0 W/m 0,4 C 0,3 C 20,9 km/h (4 Bft) 98 %
20.11.2017 06:00 1,8 C 1,8 C 1,9 C 90 % 1022,0 hPa 0,0 l/m 6,4 km/h (2 Bft) W-SW 247 0 min 0,000 mm 0 W/m 0,3 C 1,8 C 22,5 km/h (4 Bft) 97 %
20.11.2017 06:10 1,8 C 1,8 C 1,9 C 90 % 1022,1 hPa 0,0 l/m 8,0 km/h (2 Bft) W-SW 247 0 min 0,000 mm 0 W/m 0,3 C 0,2 C 19,3 km/h (3 Bft) 97 %
20.11.2017 06:20 1,8 C 1,8 C 1,9 C 90 % 1021,9 hPa 0,0 l/m 8,0 km/h (2 Bft) W-SW 247 0 min 0,000 mm 0 W/m 0,3 C 0,2 C 19,3 km/h (3 Bft) 98 %
20.11.2017 06:30 1,8 C 1,8 C 1,8 C 90 % 1022,0 hPa 0,0 l/m 6,4 km/h (2 Bft) W-SW 247 0 min 0,000 mm 0 W/m 0,3 C 1,8 C 19,3 km/h (3 Bft) 96 %
20.11.2017 06:40 1,7 C 1,7 C 1,8 C 90 % 1022,0 hPa 0,0 l/m 8,0 km/h (2 Bft) W-SW 247 0 min 0,000 mm 0 W/m 0,2 C 0,1 C 20,9 km/h (4 Bft) 98 %
20.11.2017 06:50 1,7 C 1,7 C 1,8 C 90 % 1022,1 hPa 0,0 l/m 9,7 km/h (2 Bft) W-SW 247 0 min 0,000 mm 0 W/m 0,2 C -1,3 C 22,5 km/h (4 Bft) 97 %
20.11.2017 07:00 1,6 C 1,6 C 1,7 C 90 % 1022,2 hPa 0,0 l/m 9,7 km/h (2 Bft) W 270 0 min 0,000 mm 0 W/m 0,1 C -1,4 C 27,4 km/h (4 Bft) 98 %
20.11.2017 07:10 1,6 C 1,6 C 1,6 C 90 % 1022,3 hPa 0,0 l/m 8,0 km/h (2 Bft) W 270 0 min 0,000 mm 0 W/m 0,1 C 0,0 C 17,7 km/h (3 Bft) 98 %
20.11.2017 07:20 1,5 C 1,5 C 1,6 C 90 % 1022,3 hPa 0,0 l/m 8,0 km/h (2 Bft) W-SW 247 0 min 0,000 mm 0 W/m 0,0 C -0,1 C 19,3 km/h (3 Bft) 88 %
20.11.2017 07:30 1,4 C 1,4 C 1,5 C 90 % 1022,5 hPa 0,0 l/m 6,4 km/h (2 Bft) W 270 0 min 0,000 mm 0 W/m -0,1 C 1,4 C 17,7 km/h (3 Bft) 98 %
20.11.2017 07:40 1,4 C 1,4 C 1,4 C 90 % 1022,5 hPa 0,0 l/m 8,0 km/h (2 Bft) W 270 0 min 0,000 mm 0 W/m -0,1 C -0,2 C 19,3 km/h (3 Bft) 96 %
20.11.2017 07:50 1,4 C 1,4 C 1,4 C 91 % 1022,6 hPa 0,0 l/m 9,7 km/h (2 Bft) W 270 0 min 0,000 mm 5 W/m 0,1 C -1,7 C 25,7 km/h (4 Bft) 97 %
20.11.2017 08:00 1,4 C 1,4 C 1,4 C 91 % 1022,6 hPa 0,0 l/m 8,0 km/h (2 Bft) W 270 0 min 0,000 mm 11 W/m 0,1 C -0,2 C 17,7 km/h (3 Bft) 97 %
20.11.2017 08:10 1,4 C 1,4 C 1,4 C 91 % 1022,6 hPa 0,0 l/m 6,4 km/h (2 Bft) W 270 0 min 0,000 mm 16 W/m 0,1 C 1,4 C 16,1 km/h (3 Bft) 98 %
20.11.2017 08:20 1,5 C 1,4 C 1,5 C 91 % 1022,7 hPa 0,0 l/m 4,8 km/h (1 Bft) W-SW 247 0 min 0,000 mm 23 W/m 0,2 C 1,5 C 14,5 km/h (3 Bft) 97 %
20.11.2017 08:30 1,6 C 1,5 C 1,6 C 91 % 1022,7 hPa 0,0 l/m 4,8 km/h (1 Bft) W-SW 247 0 min 0,000 mm 25 W/m 0,3 C 1,6 C 11,3 km/h (2 Bft) 97 %
20.11.2017 08:40 1,8 C 1,6 C 1,8 C 91 % 1022,7 hPa 0,0 l/m 4,8 km/h (1 Bft) W 270 0 min 0,000 mm 33 W/m 0,5 C 1,8 C 16,1 km/h (3 Bft) 98 %
20.11.2017 08:50 1,9 C 1,8 C 1,9 C 91 % 1022,7 hPa 0,0 l/m 4,8 km/h (1 Bft) W 270 0 min 0,000 mm 42 W/m 0,6 C 1,9 C 16,1 km/h (3 Bft) 89 %
20.11.2017 09:00 2,0 C 1,9 C 2,0 C 90 % 1022,7 hPa 0,0 l/m 4,8 km/h (1 Bft) W 270 0 min 0,025 mm 54 W/m 0,5 C 2,0 C 11,3 km/h (2 Bft) 98 %
20.11.2017 09:10 2,1 C 2,0 C 2,1 C 90 % 1022,7 hPa 0,0 l/m 3,2 km/h (1 Bft) W-SW 247 0 min 0,000 mm 58 W/m 0,6 C 2,1 C 9,7 km/h (2 Bft) 97 %
20.11.2017 09:20 2,2 C 2,1 C 2,2 C 90 % 1022,7 hPa 0,0 l/m 1,6 km/h (1 Bft) W-SW 247 0 min 0,000 mm 67 W/m 0,7 C 2,2 C 11,3 km/h (2 Bft) 98 %
20.11.2017 09:30 2,3 C 2,2 C 2,3 C 90 % 1022,7 hPa 0,0 l/m 1,6 km/h (1 Bft) SW 225 0 min 0,000 mm 70 W/m 0,8 C 2,3 C 11,3 km/h (2 Bft) 96 %
20.11.2017 09:40 2,4 C 2,3 C 2,4 C 89 % 1022,7 hPa 0,0 l/m 0,0 km/h (0 Bft) SW 225 0 min 0,000 mm 65 W/m 0,8 C 2,4 C 9,7 km/h (2 Bft) 97 %
20.11.2017 09:50 2,5 C 2,4 C 2,5 C 89 % 1022,8 hPa 0,0 l/m 1,6 km/h (1 Bft) SW 225 0 min 0,000 mm 69 W/m 0,9 C 2,5 C 8,0 km/h (2 Bft) 98 %
20.11.2017 10:00 2,6 C 2,5 C 2,6 C 89 % 1022,8 hPa 0,0 l/m 1,6 km/h (1 Bft) SW 225 0 min 0,025 mm 86 W/m 1,0 C 2,6 C 11,3 km/h (2 Bft) 97 %
20.11.2017 10:10 2,7 C 2,6 C 2,7 C 89 % 1022,8 hPa 0,0 l/m 3,2 km/h (1 Bft) W-SW 247 0 min 0,000 mm 86 W/m 1,1 C 2,7 C 17,7 km/h (3 Bft) 98 %
20.11.2017 10:20 2,8 C 2,7 C 2,8 C 89 % 1022,8 hPa 0,0 l/m 6,4 km/h (2 Bft) W 270 0 min 0,000 mm 76 W/m 1,2 C 2,8 C 17,7 km/h (3 Bft) 97 %
20.11.2017 10:30 2,9 C 2,8 C 2,9 C 88 % 1022,8 hPa 0,0 l/m 8,0 km/h (2 Bft) W 270 0 min 0,000 mm 72 W/m 1,1 C 1,4 C 24,1 km/h (4 Bft) 93 %
20.11.2017 10:40 3,1 C 2,9 C 3,1 C 88 % 1022,8 hPa 0,0 l/m 9,7 km/h (2 Bft) W 270 0 min 0,000 mm 77 W/m 1,3 C 0,2 C 25,7 km/h (4 Bft) 93 %
20.11.2017 10:50 3,1 C 3,0 C 3,1 C 88 % 1022,8 hPa 0,0 l/m 9,7 km/h (2 Bft) W 270 0 min 0,000 mm 84 W/m 1,3 C 0,2 C 22,5 km/h (4 Bft) 97 %
20.11.2017 11:00 3,2 C 3,1 C 3,2 C 88 % 1022,6 hPa 0,0 l/m 9,7 km/h (2 Bft) W 270 0 min 0,025 mm 91 W/m 1,4 C 0,3 C 24,1 km/h (4 Bft) 98 %
20.11.2017 11:10 3,3 C 3,2 C 3,3 C 88 % 1022,6 hPa 0,0 l/m 8,0 km/h (2 Bft) W 270 0 min 0,000 mm 98 W/m 1,5 C 1,8 C 24,1 km/h (4 Bft) 96 %
20.11.2017 11:20 3,3 C 3,3 C 3,3 C 87 % 1022,5 hPa 0,0 l/m 11,3 km/h (2 Bft) W-SW 247 0 min 0,000 mm 95 W/m 1,3 C -0,7 C 30,6 km/h (5 Bft) 98 %
20.11.2017 11:30 3,3 C 3,3 C 3,3 C 87 % 1022,6 hPa 0,0 l/m 8,0 km/h (2 Bft) W-SW 247 0 min 0,000 mm 95 W/m 1,3 C 1,8 C 25,7 km/h (4 Bft) 97 %
20.11.2017 11:40 3,4 C 3,3 C 3,4 C 87 % 1022,6 hPa 0,0 l/m 8,0 km/h (2 Bft) W-SW 247 0 min 0,000 mm 86 W/m 1,4 C 1,9 C 19,3 km/h (3 Bft) 98 %
20.11.2017 11:50 3,4 C 3,4 C 3,4 C 87 % 1022,2 hPa 0,0 l/m 6,4 km/h (2 Bft) W-SW 247 0 min 0,000 mm 70 W/m 1,4 C 3,4 C 16,1 km/h (3 Bft) 98 %
20.11.2017 12:00 3,4 C 3,4 C 3,4 C 87 % 1022,2 hPa 0,0 l/m 4,8 km/h (1 Bft) W-SW 247 0 min 0,051 mm 77 W/m 1,4 C 3,4 C 16,1 km/h (3 Bft) 97 %
20.11.2017 12:10 3,6 C 3,4 C 3,6 C 87 % 1022,0 hPa 0,0 l/m 6,4 km/h (2 Bft) SW 225 0 min 0,000 mm 148 W/m 1,6 C 3,6 C 19,3 km/h (3 Bft) 98 %
20.11.2017 12:20 3,6 C 3,6 C 3,7 C 86 % 1021,8 hPa 0,0 l/m 11,3 km/h (2 Bft) SW 225 0 min 0,000 mm 139 W/m 1,5 C -0,4 C 25,7 km/h (4 Bft) 97 %
20.11.2017 12:30 3,7 C 3,6 C 3,7 C 86 % 1021,8 hPa 0,0 l/m 9,7 km/h (2 Bft) SW 225 0 min 0,000 mm 83 W/m 1,6 C 0,9 C 24,1 km/h (4 Bft) 98 %
20.11.2017 12:40 3,6 C 3,6 C 3,7 C 87 % 1021,7 hPa 0,0 l/m 4,8 km/h (1 Bft) W-SW 247 0 min 0,000 mm 69 W/m 1,6 C 3,6 C 17,7 km/h (3 Bft) 97 %
20.11.2017 12:50 3,6 C 3,6 C 3,6 C 87 % 1021,3 hPa 0,0 l/m 9,7 km/h (2 Bft) SW 225 0 min 0,000 mm 65 W/m 1,6 C 0,8 C 22,5 km/h (4 Bft) 97 %
20.11.2017 13:10 3,4 C 3,4 C 3,6 C 88 % 1021,0 hPa 0,0 l/m 6,2 km/h (2 Bft) SW 219 0 min 0,052 mm 76 W/m 1,6 C 3,4 C 16,1 km/h (3 Bft) 97 %
20.11.2017 13:20 3,4 C 3,4 C 3,4 C 88 % 1020,8 hPa 0,0 l/m 4,0 km/h (1 Bft) S-SW 209 0 min 0,000 mm 62 W/m 1,6 C 3,4 C 14,5 km/h (3 Bft) 98 %
20.11.2017 13:30 3,4 C 3,4 C 3,4 C 88 % 1020,8 hPa 0,0 l/m 5,6 km/h (1 Bft) SW 223 0 min 0,000 mm 60 W/m 1,6 C 3,4 C 19,3 km/h (3 Bft) 89 %
20.11.2017 13:40 3,4 C 3,4 C 3,4 C 88 % 1020,6 hPa 0,0 l/m 8,0 km/h (2 Bft) W-SW 250 0 min 0,000 mm 54 W/m 1,6 C 1,9 C 19,3 km/h (3 Bft) 98 %
20.11.2017 13:50 3,5 C 3,4 C 3,5 C 88 % 1020,5 hPa 0,0 l/m 7,2 km/h (2 Bft) S-SW 211 0 min 0,000 mm 63 W/m 1,7 C 2,8 C 16,1 km/h (3 Bft) 97 %
20.11.2017 14:00 3,6 C 3,5 C 3,6 C 87 % 1020,5 hPa 0,0 l/m 8,6 km/h (2 Bft) SW 231 0 min 0,025 mm 79 W/m 1,6 C 1,6 C 19,3 km/h (3 Bft) 98 %
20.11.2017 14:10 3,6 C 3,6 C 3,6 C 87 % 1020,5 hPa 0,0 l/m 9,9 km/h (2 Bft) SW 234 0 min 0,000 mm 54 W/m 1,6 C 0,6 C 20,9 km/h (4 Bft) 97 %
20.11.2017 14:20 3,7 C 3,6 C 3,7 C 86 % 1020,5 hPa 0,0 l/m 10,2 km/h (2 Bft) W-SW 238 0 min 0,000 mm 53 W/m 1,6 C 0,5 C 20,9 km/h (4 Bft) 97 %
20.11.2017 14:30 3,8 C 3,7 C 3,8 C 86 % 1020,2 hPa 0,0 l/m 10,7 km/h (2 Bft) W-SW 245 0 min 0,000 mm 58 W/m 1,7 C 0,2 C 25,7 km/h (4 Bft) 98 %
20.11.2017 14:40 3,8 C 3,8 C 3,8 C 85 % 1020,1 hPa 0,0 l/m 11,1 km/h (2 Bft) W-NW 296 0 min 0,000 mm 60 W/m 1,5 C -0,0 C 25,7 km/h (4 Bft) 97 %
20.11.2017 14:50 3,8 C 3,8 C 3,9 C 85 % 1019,8 hPa 0,0 l/m 10,9 km/h (2 Bft) SW 235 0 min 0,000 mm 44 W/m 1,5 C 0,1 C 22,5 km/h (4 Bft) 97 %
20.11.2017 15:00 3,9 C 3,8 C 3,9 C 85 % 1019,7 hPa 0,0 l/m 11,5 km/h (2 Bft) W-SW 243 0 min 0,026 mm 46 W/m 1,6 C -0,2 C 22,5 km/h (4 Bft) 98 %
20.11.2017 15:10 3,9 C 3,9 C 3,9 C 84 % 1019,8 hPa 0,0 l/m 12,1 km/h (2 Bft) W-SW 240 0 min 0,000 mm 44 W/m 1,4 C -0,6 C 27,4 km/h (4 Bft) 97 %
20.11.2017 15:20 3,9 C 3,9 C 3,9 C 84 % 1019,6 hPa 0,0 l/m 11,8 km/h (2 Bft) SW 220 0 min 0,000 mm 33 W/m 1,4 C -0,4 C 27,4 km/h (4 Bft) 87 %
20.11.2017 15:30 3,9 C 3,9 C 3,9 C 84 % 1019,4 hPa 0,0 l/m 11,9 km/h (2 Bft) SW 229 0 min 0,000 mm 32 W/m 1,4 C -0,4 C 27,4 km/h (4 Bft) 96 %
20.11.2017 15:40 3,9 C 3,9 C 3,9 C 84 % 1019,4 hPa 0,0 l/m 10,5 km/h (2 Bft) SW 229 0 min 0,000 mm 23 W/m 1,4 C 0,5 C 24,1 km/h (4 Bft) 97 %
20.11.2017 15:50 3,9 C 3,9 C 3,9 C 84 % 1019,4 hPa 0,0 l/m 11,0 km/h (2 Bft) SW 222 0 min 0,000 mm 18 W/m 1,4 C 0,1 C 27,4 km/h (4 Bft) 98 %
20.11.2017 16:00 3,9 C 3,9 C 3,9 C 85 % 1019,1 hPa 0,0 l/m 10,0 km/h (2 Bft) W 264 0 min 0,025 mm 12 W/m 1,6 C 0,9 C 24,1 km/h (4 Bft) 97 %
20.11.2017 16:10 3,8 C 3,8 C 3,9 C 85 % 1019,3 hPa 0,0 l/m 12,4 km/h (3 Bft) SW 234 0 min 0,000 mm 7 W/m 1,5 C -0,9 C 25,7 km/h (4 Bft) 97 %
20.11.2017 16:20 3,8 C 3,8 C 3,8 C 85 % 1019,1 hPa 0,0 l/m 12,0 km/h (2 Bft) SW 226 0 min 0,000 mm 0 W/m 1,5 C -0,6 C 27,4 km/h (4 Bft) 97 %
20.11.2017 16:30 3,8 C 3,8 C 3,8 C 84 % 1019,1 hPa 0,0 l/m 11,6 km/h (2 Bft) SW 216 0 min 0,000 mm 0 W/m 1,4 C -0,4 C 29,0 km/h (5 Bft) 97 %
20.11.2017 16:40 3,8 C 3,8 C 3,8 C 84 % 1018,9 hPa 0,0 l/m 10,4 km/h (2 Bft) SW 221 0 min 0,000 mm 0 W/m 1,4 C 0,5 C 20,9 km/h (4 Bft) 97 %
20.11.2017 16:50 3,8 C 3,8 C 3,8 C 84 % 1018,8 hPa 0,0 l/m 13,9 km/h (3 Bft) W-SW 240 0 min 0,000 mm 0 W/m 1,4 C -1,8 C 33,8 km/h (5 Bft) 97 %
20.11.2017 17:00 3,8 C 3,8 C 3,8 C 84 % 1018,8 hPa 0,0 l/m 12,3 km/h (3 Bft) W-SW 247 0 min 0,025 mm 0 W/m 1,4 C -0,8 C 33,8 km/h (5 Bft) 97 %
20.11.2017 17:10 3,7 C 3,7 C 3,8 C 84 % 1018,9 hPa 0,0 l/m 9,6 km/h (2 Bft) SW 223 0 min 0,000 mm 0 W/m 1,3 C 0,9 C 25,7 km/h (4 Bft) 98 %
20.11.2017 17:20 3,6 C 3,6 C 3,7 C 86 % 1018,4 hPa 0,0 l/m 10,3 km/h (2 Bft) W-SW 252 0 min 0,000 mm 0 W/m 1,5 C 0,3 C 29,0 km/h (5 Bft) 97 %
20.11.2017 17:30 3,4 C 3,4 C 3,6 C 87 % 1018,4 hPa 0,0 l/m 9,2 km/h (2 Bft) S-SW 203 0 min 0,000 mm 0 W/m 1,4 C 0,9 C 25,7 km/h (4 Bft) 97 %
20.11.2017 17:40 3,2 C 3,2 C 3,4 C 88 % 1018,2 hPa 0,0 l/m 11,3 km/h (2 Bft) S-SW 212 0 min 0,000 mm 0 W/m 1,4 C -0,8 C 24,1 km/h (4 Bft) 97 %
20.11.2017 17:50 3,1 C 3,1 C 3,2 C 89 % 1018,1 hPa 0,2 l/m 13,3 km/h (3 Bft) S-SW 197 0 min 0,000 mm 0 W/m 1,5 C -2,2 C 24,1 km/h (4 Bft) 97 %
20.11.2017 18:00 3,0 C 3,0 C 3,1 C 90 % 1018,0 hPa 0,0 l/m 14,3 km/h (3 Bft) SW 215 0 min 0,026 mm 0 W/m 1,5 C -3,0 C 22,5 km/h (4 Bft) 97 %
20.11.2017 18:10 2,9 C 2,9 C 3,0 C 90 % 1017,7 hPa 0,0 l/m 10,3 km/h (2 Bft) S-SW 213 0 min 0,000 mm 0 W/m 1,4 C -0,5 C 20,9 km/h (4 Bft) 97 %
20.11.2017 18:20 2,8 C 2,8 C 2,9 C 90 % 1017,9 hPa 0,0 l/m 10,5 km/h (2 Bft) S-SW 212 0 min 0,000 mm 0 W/m 1,3 C -0,7 C 17,7 km/h (3 Bft) 98 %
20.11.2017 18:30 2,8 C 2,8 C 2,8 C 91 % 1017,8 hPa 0,2 l/m 7,6 km/h (2 Bft) S-SW 209 0 min 0,000 mm 0 W/m 1,5 C 1,7 C 17,7 km/h (3 Bft) 97 %
20.11.2017 18:40 2,8 C 2,8 C 2,8 C 90 % 1017,7 hPa 0,0 l/m 6,7 km/h (2 Bft) S-SW 213 0 min 0,000 mm 0 W/m 1,3 C 2,5 C 20,9 km/h (4 Bft) 97 %
20.11.2017 18:50 2,8 C 2,8 C 2,8 C 90 % 1017,7 hPa 0,0 l/m 7,8 km/h (2 Bft) S-SW 201 0 min 0,000 mm 0 W/m 1,3 C 1,5 C 17,7 km/h (3 Bft) 96 %
20.11.2017 19:00 2,7 C 2,7 C 2,8 C 90 % 1017,6 hPa 0,0 l/m 7,4 km/h (2 Bft) S 191 0 min 0,000 mm 0 W/m 1,2 C 1,7 C 16,1 km/h (3 Bft) 90 %
20.11.2017 19:10 2,7 C 2,7 C 2,8 C 90 % 1017,5 hPa 0,0 l/m 4,9 km/h (1 Bft) S-SW 211 0 min 0,000 mm 0 W/m 1,2 C 2,7 C 14,5 km/h (3 Bft) 97 %
20.11.2017 19:20 2,7 C 2,7 C 2,7 C 90 % 1017,4 hPa 0,2 l/m 1,6 km/h (1 Bft) S 186 0 min 0,000 mm 0 W/m 1,2 C 2,7 C 11,3 km/h (2 Bft) 98 %
20.11.2017 19:30 2,7 C 2,7 C 2,7 C 90 % 1017,3 hPa 0,0 l/m 4,4 km/h (1 Bft) S-SW 210 0 min 0,000 mm 0 W/m 1,2 C 2,7 C 16,1 km/h (3 Bft) 97 %
20.11.2017 19:40 2,7 C 2,7 C 2,7 C 90 % 1017,2 hPa 0,0 l/m 5,5 km/h (1 Bft) S 187 0 min 0,000 mm 0 W/m 1,2 C 2,7 C 16,1 km/h (3 Bft) 98 %
20.11.2017 19:50 2,8 C 2,7 C 2,8 C 90 % 1017,0 hPa 0,0 l/m 4,5 km/h (1 Bft) S 185 0 min 0,000 mm 0 W/m 1,3 C 2,8 C 16,1 km/h (3 Bft) 97 %
20.11.2017 20:00 2,8 C 2,8 C 2,8 C 90 % 1017,0 hPa 0,0 l/m 1,2 km/h (1 Bft) S 186 0 min 0,000 mm 0 W/m 1,3 C 2,8 C 11,3 km/h (2 Bft) 98 %
20.11.2017 20:10 2,8 C 2,8 C 2,8 C 90 % 1017,0 hPa 0,2 l/m 3,5 km/h (1 Bft) S-SO 153 0 min 0,000 mm 0 W/m 1,3 C 2,8 C 14,5 km/h (3 Bft) 97 %
20.11.2017 20:20 2,8 C 2,8 C 2,8 C 90 % 1017,0 hPa 0,0 l/m 1,6 km/h (1 Bft) S-SO 158 0 min 0,000 mm 0 W/m 1,3 C 2,8 C 9,7 km/h (2 Bft) 97 %
20.11.2017 20:30 2,8 C 2,8 C 2,8 C 90 % 1016,9 hPa 0,0 l/m 1,7 km/h (1 Bft) S 184 0 min 0,000 mm 0 W/m 1,3 C 2,8 C 11,3 km/h (2 Bft) 97 %
20.11.2017 20:40 2,8 C 2,8 C 2,8 C 91 % 1017,0 hPa 0,0 l/m 3,7 km/h (1 Bft) S 190 0 min 0,000 mm 0 W/m 1,5 C 2,8 C 8,0 km/h (2 Bft) 98 %
20.11.2017 20:50 2,8 C 2,8 C 2,8 C 91 % 1017,0 hPa 0,0 l/m 2,5 km/h (1 Bft) S-SW 204 0 min 0,000 mm 0 W/m 1,5 C 2,8 C 9,7 km/h (2 Bft) 97 %
20.11.2017 21:00 2,9 C 2,8 C 2,9 C 91 % 1016,9 hPa 0,0 l/m 0,8 km/h (0 Bft) S-SW 192 0 min 0,000 mm 0 W/m 1,6 C 2,9 C 9,7 km/h (2 Bft) 97 %
20.11.2017 21:10 3,0 C 2,9 C 3,0 C 91 % 1017,0 hPa 0,2 l/m 0,0 km/h (0 Bft) S-SW 202 0 min 0,000 mm 0 W/m 1,7 C 3,0 C 8,0 km/h (2 Bft) 100 %
20.11.2017 21:20 3,1 C 3,0 C 3,1 C 91 % 1017,0 hPa 0,0 l/m 1,6 km/h (1 Bft) SW 225 0 min 0,000 mm 0 W/m 1,8 C 3,1 C 6,4 km/h (2 Bft) 100 %
20.11.2017 21:30 3,2 C 3,1 C 3,2 C 91 % 1017,1 hPa 0,0 l/m 3,2 km/h (1 Bft) S-SW 202 0 min 0,000 mm 0 W/m 1,9 C 3,2 C 11,3 km/h (2 Bft) 100 %
20.11.2017 21:40 3,3 C 3,2 C 3,3 C 91 % 1017,2 hPa 0,0 l/m 3,2 km/h (1 Bft) SW 225 0 min 0,000 mm 0 W/m 2,0 C 3,3 C 12,9 km/h (3 Bft) 89 %
20.11.2017 21:50 3,5 C 3,3 C 3,5 C 91 % 1016,7 hPa 0,2 l/m 6,4 km/h (2 Bft) S-SW 202 0 min 0,000 mm 0 W/m 2,2 C 3,5 C 17,7 km/h (3 Bft) 100 %
20.11.2017 22:00 3,6 C 3,5 C 3,6 C 91 % 1016,7 hPa 0,0 l/m 6,4 km/h (2 Bft) SW 225 0 min 0,000 mm 0 W/m 2,3 C 3,6 C 20,9 km/h (4 Bft) 100 %
20.11.2017 22:10 3,8 C 3,6 C 3,8 C 91 % 1016,7 hPa 0,0 l/m 6,4 km/h (2 Bft) SW 225 0 min 0,000 mm 0 W/m 2,5 C 3,8 C 19,3 km/h (3 Bft) 100 %
20.11.2017 22:20 3,9 C 3,8 C 3,9 C 91 % 1016,6 hPa 0,0 l/m 4,8 km/h (1 Bft) SW 225 0 min 0,000 mm 0 W/m 2,6 C 3,9 C 16,1 km/h (3 Bft) 100 %
20.11.2017 22:30 4,1 C 3,9 C 4,1 C 91 % 1016,6 hPa 0,2 l/m 3,2 km/h (1 Bft) SW 225 0 min 0,000 mm 0 W/m 2,8 C 4,1 C 14,5 km/h (3 Bft) 100 %
20.11.2017 22:40 4,2 C 4,1 C 4,2 C 91 % 1016,5 hPa 0,0 l/m 6,4 km/h (2 Bft) W-SW 247 0 min 0,000 mm 0 W/m 2,9 C 4,2 C 19,3 km/h (3 Bft) 100 %
20.11.2017 22:50 4,3 C 4,2 C 4,3 C 91 % 1016,4 hPa 0,0 l/m 8,0 km/h (2 Bft) S-SW 202 0 min 0,000 mm 0 W/m 3,0 C 2,9 C 24,1 km/h (4 Bft) 100 %
20.11.2017 23:00 4,4 C 4,3 C 4,4 C 91 % 1016,4 hPa 0,0 l/m 11,3 km/h (2 Bft) SW 225 0 min 0,000 mm 0 W/m 3,1 C 0,5 C 27,4 km/h (4 Bft) 100 %
20.11.2017 23:10 4,5 C 4,4 C 4,5 C 91 % 1016,1 hPa 0,0 l/m 16,1 km/h (3 Bft) SW 225 0 min 0,000 mm 0 W/m 3,2 C -2,1 C 32,2 km/h (5 Bft) 100 %
20.11.2017 23:20 4,6 C 4,5 C 4,6 C 90 % 1016,1 hPa 0,0 l/m 16,1 km/h (3 Bft) SW 225 0 min 0,000 mm 0 W/m 3,1 C -2,0 C 37,0 km/h (5 Bft) 100 %
20.11.2017 23:30 4,6 C 4,6 C 4,6 C 90 % 1016,0 hPa 0,0 l/m 16,1 km/h (3 Bft) SW 225 0 min 0,000 mm 0 W/m 3,1 C -2,0 C 30,6 km/h (5 Bft) 96 %
20.11.2017 23:40 4,7 C 4,6 C 4,7 C 91 % 1016,1 hPa 0,0 l/m 14,5 km/h (3 Bft) SW 225 0 min 0,000 mm 0 W/m 3,4 C -1,0 C 30,6 km/h (5 Bft) 94 %
20.11.2017 23:50 4,7 C 4,7 C 4,8 C 91 % 1016,4 hPa 0,0 l/m 14,5 km/h (3 Bft) W-SW 247 0 min 0,000 mm 0 W/m 3,4 C -1,0 C 32,2 km/h (5 Bft) 100 %
_ Min-Zeit 07:30 07:30 07:40 15:10 23:30 - 00:20 - - - - - 07:30 18:00 00:20 00:10
Minimum _ 1,4 C 1,4 C 1,4 C 84 % 1016,0 hPa - 0,0 km/h (0 Bft) - - - - - -0,1 C -3,0 C 6,4 km/h (2 Bft) 79 %
_ Max-Zeit 23:50 23:50 23:50 07:50 09:50 17:50 23:10 - - 00:00 13:10 12:10 23:40 22:40 23:20 21:10
Maximum _ 4,8 C 4,7 C 4,8 C 91 % 1022,8 hPa 0,2 l/m 16,1 km/h
SW (3 Bft)
- - 0 min 0,052 mm 148 W/m 3,4 C 4,2 C 37,0 km/h
W (5 Bft)
100 %
Durchschnitt _ 2,9 C 2,9 C 3,0 C 89 % 1020,4 hPa #1,4 l/m 7,3 km/h (2 Bft) W-SW - #0 min. #0,305 mm 60 W/m 1,2 C 1,4 C 19,3 km/h (3 Bft) 97 %
PRIVATE WETTERSTATION BILLIGHEIM-ALLFELD - www.neckar-odenwald-wetter.de - Holger Sonntag